createdAt,value
2019-05-03T00:00:56.697Z,94.70
2019-05-03T00:03:25.974Z,95.00
2019-05-03T00:05:56.984Z,95.00
2019-05-03T00:08:26.275Z,95.20
2019-05-03T00:10:55.613Z,95.20
2019-05-03T00:13:24.983Z,95.30
2019-05-03T00:15:55.898Z,95.40
2019-05-03T00:18:25.259Z,95.50
2019-05-03T00:20:54.544Z,95.60
2019-05-03T00:23:23.825Z,95.70
2019-05-03T00:25:53.136Z,95.70
2019-05-03T00:28:22.803Z,95.80
2019-05-03T00:30:52.330Z,95.80
2019-05-03T00:33:22.437Z,95.90
2019-05-03T00:35:56.555Z,95.90
2019-05-03T00:38:25.854Z,95.90
2019-05-03T00:40:55.123Z,96.00
2019-05-03T00:43:24.472Z,96.00
2019-05-03T00:45:53.856Z,96.10
2019-05-03T00:48:23.145Z,96.00
2019-05-03T00:50:52.433Z,96.10
2019-05-03T00:53:22.413Z,96.10
2019-05-03T00:55:52.455Z,96.20
2019-05-03T00:58:22.972Z,96.10
2019-05-03T01:00:52.562Z,96.20
2019-05-03T01:03:22.123Z,96.20
2019-05-03T01:05:52.886Z,96.20
2019-05-03T01:08:22.314Z,96.20
2019-05-03T01:10:51.767Z,96.20
2019-05-03T01:13:21.807Z,96.20
2019-05-03T01:15:55.960Z,96.10
2019-05-03T01:18:25.309Z,96.10
2019-05-03T01:20:54.581Z,96.20
2019-05-03T01:23:36.586Z,96.10
2019-05-03T01:26:05.857Z,96.10
2019-05-03T01:28:35.148Z,96.10
2019-05-03T01:31:04.700Z,96.10
2019-05-03T01:33:33.989Z,96.10
2019-05-03T01:36:03.282Z,96.10
2019-05-03T01:38:32.576Z,96.10
2019-05-03T01:41:03.178Z,96.40
2019-05-03T01:43:32.475Z,96.10
2019-05-03T01:46:02.708Z,96.00
2019-05-03T01:48:41.617Z,96.10
2019-05-03T01:51:15.543Z,96.00
2019-05-03T01:53:44.813Z,96.00
2019-05-03T01:56:15.170Z,96.00
2019-05-03T01:58:44.449Z,96.00
2019-05-03T02:01:18.331Z,95.90
2019-05-03T02:03:55.201Z,95.90
2019-05-03T02:06:24.497Z,95.90
2019-05-03T02:08:57.519Z,96.00
2019-05-03T02:11:26.801Z,95.90
2019-05-03T02:13:56.080Z,95.90
2019-05-03T02:16:25.363Z,95.90
2019-05-03T02:18:54.665Z,95.90
2019-05-03T02:21:23.972Z,95.90
2019-05-03T02:23:53.251Z,95.90
2019-05-03T02:26:22.550Z,95.90
2019-05-03T02:28:52.739Z,95.80
2019-05-03T02:31:23.232Z,95.80
2019-05-03T02:33:53.359Z,95.80
2019-05-03T02:36:23.410Z,95.80
2019-05-03T02:38:53.633Z,95.80
2019-05-03T02:41:23.025Z,95.80
2019-05-03T02:43:56.024Z,95.70
2019-05-03T02:46:28.990Z,95.70
2019-05-03T02:49:06.531Z,95.60
2019-05-03T02:51:36.925Z,95.60
2019-05-03T02:54:06.204Z,95.60
2019-05-03T02:56:35.951Z,95.50
2019-05-03T02:59:06.260Z,95.50
2019-05-03T03:01:36.165Z,95.40
2019-05-03T03:04:05.878Z,95.40
2019-05-03T03:06:37.070Z,95.30
2019-05-03T03:09:07.391Z,95.20
2019-05-03T03:11:38.822Z,95.20
2019-05-03T03:14:11.538Z,95.10
2019-05-03T03:16:45.498Z,95.50
2019-05-03T03:19:16.286Z,95.00
2019-05-03T03:21:48.591Z,95.00
2019-05-03T03:24:20.393Z,95.00
2019-05-03T03:26:51.512Z,95.00
2019-05-03T03:29:25.350Z,95.00
2019-05-03T03:32:00.676Z,94.90
2019-05-03T03:34:37.980Z,94.90
2019-05-03T03:37:09.370Z,94.90
2019-05-03T03:39:36.323Z,95.00
2019-05-03T03:42:05.754Z,95.00
2019-05-03T03:44:36.288Z,95.00
2019-05-03T03:47:06.905Z,95.00
2019-05-03T03:49:38.054Z,95.00
2019-05-03T03:52:09.242Z,95.10
2019-05-03T03:54:41.134Z,95.10
2019-05-03T03:57:15.785Z,95.10
2019-05-03T03:59:45.435Z,95.00
2019-05-03T04:02:16.301Z,95.00
2019-05-03T04:04:46.912Z,95.00
2019-05-03T04:07:16.476Z,95.10
2019-05-03T04:09:46.062Z,95.10
2019-05-03T04:12:16.793Z,95.10
2019-05-03T04:14:50.652Z,95.10
2019-05-03T04:17:26.057Z,95.10
2019-05-03T04:19:57.934Z,95.20
2019-05-03T04:22:27.381Z,95.20
2019-05-03T04:24:56.729Z,95.20
2019-05-03T04:27:27.457Z,95.30
2019-05-03T04:29:57.259Z,95.30
2019-05-03T04:32:29.003Z,95.40
2019-05-03T04:34:57.499Z,95.40
2019-05-03T04:37:26.909Z,95.50
2019-05-03T04:39:56.359Z,95.60
2019-05-03T04:42:25.886Z,95.60
2019-05-03T04:44:56.257Z,95.70
2019-05-03T04:47:26.636Z,95.80
2019-05-03T04:49:57.107Z,95.90
2019-05-03T04:52:26.364Z,95.90
2019-05-03T04:54:57.293Z,95.90
2019-05-03T04:57:40.069Z,95.90
2019-05-03T04:59:57.932Z,96.00
2019-05-03T05:02:27.216Z,96.10
2019-05-03T05:04:56.490Z,96.10
2019-05-03T05:07:26.462Z,96.10
2019-05-03T05:09:56.366Z,96.50
2019-05-03T05:12:26.055Z,96.10
2019-05-03T05:14:56.413Z,96.20
2019-05-03T05:17:30.613Z,96.20
2019-05-03T05:20:17.947Z,96.10
2019-05-03T05:22:47.212Z,96.00
2019-05-03T05:25:25.147Z,96.00
2019-05-03T05:28:01.876Z,96.10
2019-05-03T05:30:31.944Z,96.10
2019-05-03T05:33:01.242Z,96.20
2019-05-03T05:35:30.529Z,96.10
2019-05-03T05:37:59.801Z,95.40
2019-05-03T05:40:29.118Z,95.40
2019-05-03T05:42:58.402Z,95.20
2019-05-03T05:45:27.683Z,94.90
2019-05-03T05:47:58.592Z,95.30
2019-05-03T05:50:29.525Z,94.80
2019-05-03T05:52:58.866Z,94.70
2019-05-03T05:55:29.769Z,94.40
2019-05-03T05:58:05.100Z,94.10
2019-05-03T06:00:33.305Z,93.90
2019-05-03T06:03:02.589Z,93.80
2019-05-03T06:05:31.860Z,93.60
2019-05-03T06:08:15.088Z,93.60
2019-05-03T06:10:48.804Z,93.30
2019-05-03T06:13:22.430Z,93.40
2019-05-03T06:15:56.014Z,93.30
2019-05-03T06:18:26.931Z,93.10
2019-05-03T06:21:16.214Z,92.70
2019-05-03T06:24:04.493Z,92.30
2019-05-03T06:26:38.184Z,92.30
2019-05-03T06:29:07.801Z,92.10
2019-05-03T06:31:41.589Z,92.00
2019-05-03T06:34:10.864Z,91.50
2019-05-03T06:36:41.526Z,90.20
2019-05-03T06:39:10.798Z,90.40
2019-05-03T06:41:40.066Z,90.90
2019-05-03T06:44:09.336Z,90.80
2019-05-03T06:46:46.280Z,90.10
2019-05-03T06:49:16.526Z,90.20
2019-05-03T06:51:49.699Z,90.10
2019-05-03T06:54:20.574Z,89.40
2019-05-03T06:56:47.800Z,88.90
2019-05-03T06:59:24.966Z,87.40
2019-05-03T07:02:05.596Z,86.20
2019-05-03T07:04:36.680Z,86.80
2019-05-03T07:07:10.270Z,87.10
2019-05-03T07:09:41.208Z,87.70
2019-05-03T07:12:10.470Z,87.20
2019-05-03T07:14:40.079Z,87.40
2019-05-03T07:17:09.376Z,86.40
2019-05-03T07:19:38.658Z,86.70
2019-05-03T07:22:07.925Z,87.00
2019-05-03T07:24:40.556Z,86.00
2019-05-03T07:27:08.179Z,85.20
2019-05-03T07:29:37.458Z,84.70
2019-05-03T07:32:06.798Z,85.20
2019-05-03T07:34:36.066Z,85.50
2019-05-03T07:37:05.887Z,84.90
2019-05-03T07:39:35.386Z,84.70
2019-05-03T07:42:05.382Z,83.60
2019-05-03T07:44:34.992Z,83.00
2019-05-03T07:47:04.940Z,77.90
2019-05-03T07:49:35.665Z,79.20
2019-05-03T07:52:05.806Z,79.60
2019-05-03T07:54:35.380Z,79.30
2019-05-03T07:57:06.309Z,76.70
2019-05-03T07:59:35.716Z,74.90
2019-05-03T08:02:05.585Z,75.00
2019-05-03T08:04:35.818Z,75.00
2019-05-03T08:07:05.296Z,73.70
2019-05-03T08:09:35.039Z,73.70
2019-05-03T08:12:05.133Z,74.20
2019-05-03T08:14:35.731Z,73.70
2019-05-03T08:17:05.278Z,73.30
2019-05-03T08:19:35.824Z,72.60
2019-05-03T08:22:05.408Z,71.50
2019-05-03T08:24:34.801Z,72.20
2019-05-03T08:27:05.038Z,72.80
2019-05-03T08:29:35.174Z,73.10
2019-05-03T08:32:06.357Z,72.40
2019-05-03T08:34:37.266Z,72.70
2019-05-03T08:37:11.174Z,72.40
2019-05-03T08:39:40.502Z,73.00
2019-05-03T08:42:11.447Z,70.70
2019-05-03T08:44:41.849Z,69.60
2019-05-03T08:47:11.141Z,68.70
2019-05-03T08:49:40.428Z,67.60
2019-05-03T08:52:10.807Z,66.80
2019-05-03T08:54:40.087Z,67.10
2019-05-03T08:57:09.362Z,68.20
2019-05-03T08:59:38.642Z,67.80
2019-05-03T09:02:13.906Z,68.50
2019-05-03T09:04:42.900Z,65.90
2019-05-03T09:07:09.994Z,62.50
2019-05-03T09:09:40.960Z,63.70
2019-05-03T09:12:10.252Z,63.90
2019-05-03T09:14:45.267Z,64.10
2019-05-03T09:17:10.876Z,65.20
2019-05-03T09:19:40.161Z,65.10
2019-05-03T09:22:09.438Z,63.90
2019-05-03T09:24:39.682Z,65.10
2019-05-03T09:27:08.954Z,66.70
2019-05-03T09:29:43.290Z,63.50
2019-05-03T09:32:09.212Z,64.00
2019-05-03T09:34:38.502Z,64.70
2019-05-03T09:37:07.778Z,63.80
2019-05-03T09:39:37.068Z,63.80
2019-05-03T09:42:06.339Z,64.50
2019-05-03T09:44:35.622Z,63.10
2019-05-03T09:47:05.965Z,63.00
2019-05-03T09:49:35.255Z,62.70
2019-05-03T09:52:08.080Z,62.90
2019-05-03T09:54:37.430Z,63.60
2019-05-03T09:57:06.711Z,63.70
2019-05-03T09:59:35.992Z,63.80
2019-05-03T10:02:05.273Z,63.90
2019-05-03T10:04:36.667Z,63.60
2019-05-03T10:07:05.701Z,63.40
2019-05-03T10:09:35.495Z,62.20
2019-05-03T10:12:06.963Z,61.00
2019-05-03T10:14:36.242Z,60.40
2019-05-03T10:17:09.949Z,58.70
2019-05-03T10:19:40.432Z,58.10
2019-05-03T10:22:10.252Z,58.70
2019-05-03T10:24:39.631Z,58.40
2019-05-03T10:27:09.489Z,60.10
2019-05-03T10:29:38.858Z,60.60
2019-05-03T10:32:18.813Z,61.30
2019-05-03T10:34:56.660Z,62.10
2019-05-03T10:37:30.762Z,60.90
2019-05-03T10:40:05.201Z,61.60
2019-05-03T10:42:35.303Z,61.10
2019-05-03T10:45:07.409Z,61.70
2019-05-03T10:47:36.686Z,61.50
2019-05-03T10:50:08.279Z,62.60
2019-05-03T10:52:39.197Z,61.70
2019-05-03T10:55:08.729Z,63.30
2019-05-03T10:57:39.651Z,62.70
2019-05-03T11:00:39.315Z,61.10
2019-05-03T11:02:54.983Z,60.70
2019-05-03T11:05:24.385Z,58.90
2019-05-03T11:07:55.476Z,59.10
2019-05-03T11:10:25.265Z,58.10
2019-05-03T11:12:54.855Z,56.80
2019-05-03T11:15:25.846Z,56.90
2019-05-03T11:17:55.308Z,57.40
2019-05-03T11:20:35.513Z,56.10
2019-05-03T11:23:07.302Z,55.40
2019-05-03T11:25:36.914Z,55.30
2019-05-03T11:28:08.360Z,55.90
2019-05-03T11:30:37.724Z,57.00
2019-05-03T11:33:08.660Z,55.60
2019-05-03T11:35:44.674Z,54.70
2019-05-03T11:38:18.449Z,54.20
2019-05-03T11:40:47.721Z,54.00
2019-05-03T11:43:18.640Z,52.70
2019-05-03T11:45:47.915Z,53.80
2019-05-03T11:48:18.315Z,53.90
2019-05-03T11:50:47.674Z,53.60
2019-05-03T11:53:16.972Z,54.90
2019-05-03T11:55:46.596Z,54.20
2019-05-03T11:58:21.567Z,52.90
2019-05-03T12:01:08.183Z,51.40
2019-05-03T12:03:38.210Z,52.40
2019-05-03T12:06:08.673Z,51.90
2019-05-03T12:08:37.945Z,53.20
2019-05-03T12:11:07.505Z,53.00
2019-05-03T12:13:36.781Z,53.90
2019-05-03T12:16:17.516Z,54.30
2019-05-03T12:18:49.392Z,53.50
2019-05-03T12:21:09.711Z,52.00
2019-05-03T12:23:39.731Z,52.30
2019-05-03T12:26:13.088Z,51.80
2019-05-03T12:28:40.276Z,50.50
2019-05-03T12:31:24.335Z,51.10
2019-05-03T12:33:40.535Z,49.70
2019-05-03T12:36:09.806Z,51.70
2019-05-03T12:38:39.083Z,52.50
2019-05-03T12:41:08.377Z,52.70
2019-05-03T12:43:37.663Z,51.80
2019-05-03T12:46:06.974Z,51.80
2019-05-03T12:48:36.255Z,52.20
2019-05-03T12:51:07.254Z,51.20
2019-05-03T12:53:37.908Z,50.60
2019-05-03T12:56:11.801Z,51.40
2019-05-03T12:58:55.304Z,50.30
2019-05-03T13:01:33.993Z,51.10
2019-05-03T13:04:01.983Z,50.20
2019-05-03T13:06:34.633Z,49.60
2019-05-03T13:09:05.592Z,50.30
2019-05-03T13:11:36.991Z,50.00
2019-05-03T13:14:07.254Z,49.50
2019-05-03T13:16:36.533Z,48.40
2019-05-03T13:19:05.815Z,48.20
2019-05-03T13:21:35.587Z,47.40
2019-05-03T13:24:05.484Z,45.90
2019-05-03T13:26:35.172Z,47.20
2019-05-03T13:29:05.894Z,47.30
2019-05-03T13:31:36.387Z,47.60
2019-05-03T13:34:05.770Z,47.60
2019-05-03T13:36:36.098Z,47.90
2019-05-03T13:39:14.042Z,48.00
2019-05-03T13:41:38.795Z,48.00
2019-05-03T13:44:08.070Z,47.90
2019-05-03T13:46:37.361Z,48.60
2019-05-03T13:49:08.733Z,49.60
2019-05-03T13:51:37.636Z,50.00
2019-05-03T13:54:08.359Z,50.10
2019-05-03T13:56:37.676Z,49.40
2019-05-03T13:59:18.470Z,49.90
2019-05-03T14:01:38.252Z,49.10
2019-05-03T14:04:07.526Z,49.40
2019-05-03T14:06:36.815Z,50.60
2019-05-03T14:09:06.729Z,50.30
2019-05-03T14:11:36.104Z,50.30
2019-05-03T14:14:05.383Z,50.50
2019-05-03T14:16:34.656Z,50.10
2019-05-03T14:19:05.645Z,49.70
2019-05-03T14:21:37.530Z,50.70
2019-05-03T14:24:09.828Z,51.30
2019-05-03T14:26:39.959Z,50.50
2019-05-03T14:29:09.765Z,50.20
2019-05-03T14:31:39.057Z,51.60
2019-05-03T14:34:08.336Z,50.90
2019-05-03T14:36:37.627Z,50.10
2019-05-03T14:39:10.045Z,49.60
2019-05-03T14:41:39.342Z,49.70
2019-05-03T14:44:08.622Z,50.10
2019-05-03T14:46:38.162Z,50.40
2019-05-03T14:49:07.451Z,51.10
2019-05-03T14:51:36.712Z,51.50
2019-05-03T14:54:06.983Z,51.60
2019-05-03T14:56:45.546Z,51.80
2019-05-03T14:59:16.577Z,51.40
2019-05-03T15:01:56.457Z,51.50
2019-05-03T15:04:25.760Z,52.20
2019-05-03T15:06:57.772Z,51.40
2019-05-03T15:09:26.087Z,52.00
2019-05-03T15:11:55.361Z,53.10
2019-05-03T15:14:25.112Z,52.80
2019-05-03T15:16:55.783Z,53.90
2019-05-03T15:19:25.469Z,54.90
2019-05-03T15:21:54.889Z,56.90
2019-05-03T15:24:25.202Z,57.20
2019-05-03T15:26:55.389Z,58.40
2019-05-03T15:29:24.815Z,60.40
2019-05-03T15:31:55.295Z,60.90
2019-05-03T15:34:24.734Z,61.30
2019-05-03T15:36:54.727Z,61.80
2019-05-03T15:39:24.196Z,62.60
2019-05-03T15:41:54.406Z,62.80
2019-05-03T15:44:31.322Z,63.00
2019-05-03T15:47:02.247Z,63.50
2019-05-03T15:49:31.517Z,63.70
2019-05-03T15:52:00.805Z,64.30
2019-05-03T15:54:30.097Z,64.60
2019-05-03T15:56:59.377Z,64.70
2019-05-03T15:59:29.761Z,65.00
2019-05-03T16:01:59.040Z,65.80
2019-05-03T16:04:28.329Z,66.10
2019-05-03T16:06:57.602Z,66.50
2019-05-03T16:09:26.900Z,67.30
2019-05-03T16:11:56.241Z,67.40
2019-05-03T16:14:26.592Z,68.20
2019-05-03T16:16:55.880Z,68.60
2019-05-03T16:19:26.188Z,68.10
2019-05-03T16:21:55.458Z,68.40
2019-05-03T16:24:24.993Z,67.90
2019-05-03T16:27:08.255Z,67.90
2019-05-03T16:29:37.543Z,68.20
2019-05-03T16:32:06.828Z,69.00
2019-05-03T16:34:36.116Z,69.00
2019-05-03T16:37:05.645Z,69.40
2019-05-03T16:39:35.312Z,70.80
2019-05-03T16:42:06.945Z,71.50
2019-05-03T16:44:36.365Z,72.00
2019-05-03T16:47:07.196Z,71.50
2019-05-03T16:49:36.680Z,71.20
2019-05-03T16:52:06.263Z,71.10
2019-05-03T16:54:35.538Z,71.30
2019-05-03T16:57:05.808Z,71.70
2019-05-03T16:59:35.388Z,71.90
2019-05-03T17:02:05.800Z,71.60
2019-05-03T17:04:45.793Z,72.20
2019-05-03T17:07:31.533Z,71.50
2019-05-03T17:10:02.455Z,71.60
2019-05-03T17:12:34.814Z,71.60
2019-05-03T17:15:09.418Z,71.90
2019-05-03T17:17:39.893Z,71.30
2019-05-03T17:20:09.459Z,70.90
2019-05-03T17:22:39.910Z,71.20
2019-05-03T17:25:09.258Z,71.30
2019-05-03T17:27:38.612Z,71.40
2019-05-03T17:30:09.783Z,71.00
2019-05-03T17:32:39.063Z,70.90
2019-05-03T17:35:08.474Z,71.10
2019-05-03T17:37:37.768Z,71.10
2019-05-03T17:40:12.191Z,71.30
2019-05-03T17:42:49.138Z,71.30
2019-05-03T17:45:21.273Z,71.60
2019-05-03T17:47:50.565Z,72.00
2019-05-03T17:50:19.831Z,72.50
2019-05-03T17:52:50.757Z,72.70
2019-05-03T17:55:21.715Z,73.30
2019-05-03T17:57:55.568Z,73.40
2019-05-03T18:00:44.418Z,73.60
2019-05-03T18:03:16.121Z,73.80
2019-05-03T18:05:47.058Z,73.90
2019-05-03T18:08:27.880Z,73.90
2019-05-03T18:11:16.385Z,74.00
2019-05-03T18:13:45.685Z,74.20
2019-05-03T18:16:14.947Z,74.40
2019-05-03T18:18:45.456Z,74.70
2019-05-03T18:21:15.135Z,75.00
2019-05-03T18:23:45.564Z,75.10
2019-05-03T18:26:15.012Z,75.50
2019-05-03T18:28:44.778Z,75.70
2019-05-03T18:31:14.637Z,75.80
2019-05-03T18:33:44.389Z,75.90
2019-05-03T18:36:14.827Z,76.10
2019-05-03T18:38:44.593Z,76.00
2019-05-03T18:41:14.400Z,76.50
2019-05-03T18:43:48.241Z,76.80
2019-05-03T18:46:21.567Z,76.80
2019-05-03T18:48:50.867Z,76.80
2019-05-03T18:51:21.120Z,77.30
2019-05-03T18:53:50.393Z,77.50
2019-05-03T18:56:19.676Z,77.50
2019-05-03T18:58:49.038Z,77.80
2019-05-03T19:01:18.311Z,77.60
2019-05-03T19:03:49.249Z,77.60
2019-05-03T19:06:18.987Z,77.70
2019-05-03T19:08:54.305Z,77.80
2019-05-03T19:11:25.454Z,78.00
2019-05-03T19:14:05.383Z,78.10
2019-05-03T19:16:42.241Z,78.10
2019-05-03T19:19:12.964Z,78.20
2019-05-03T19:21:44.316Z,78.40
2019-05-03T19:24:15.198Z,78.60
2019-05-03T19:26:45.075Z,78.70
2019-05-03T19:29:14.889Z,78.90
2019-05-03T19:31:44.875Z,79.10
2019-05-03T19:34:15.444Z,79.20
2019-05-03T19:36:45.686Z,79.20
2019-05-03T19:39:15.088Z,79.80
2019-05-03T19:41:44.850Z,79.40
2019-05-03T19:44:15.166Z,80.70
2019-05-03T19:46:44.645Z,80.20
2019-05-03T19:49:13.888Z,80.00
2019-05-03T19:51:45.044Z,80.20
2019-05-03T19:54:14.681Z,80.90
2019-05-03T19:56:44.620Z,81.20
2019-05-03T19:59:16.721Z,80.90
2019-05-03T20:01:50.096Z,81.00
2019-05-03T20:04:26.982Z,81.10
2019-05-03T20:06:57.921Z,81.20
2019-05-03T20:09:27.775Z,81.50
2019-05-03T20:11:57.057Z,81.70
2019-05-03T20:14:26.327Z,81.60
2019-05-03T20:16:55.869Z,81.90
2019-05-03T20:19:25.706Z,81.80
2019-05-03T20:21:56.674Z,81.90
2019-05-03T20:24:26.250Z,82.50
2019-05-03T20:26:55.574Z,82.40
2019-05-03T20:29:25.814Z,82.30
2019-05-03T20:31:55.287Z,82.30
2019-05-03T20:34:25.588Z,82.50
2019-05-03T20:36:54.958Z,82.80
2019-05-03T20:39:25.447Z,82.90
2019-05-03T20:41:55.149Z,83.40
2019-05-03T20:44:32.449Z,83.20
2019-05-03T20:47:04.387Z,83.70
2019-05-03T20:49:35.080Z,83.70
2019-05-03T20:52:05.399Z,84.30
2019-05-03T20:54:35.097Z,84.40
2019-05-03T20:57:05.263Z,84.50
2019-05-03T20:59:42.994Z,84.70
2019-05-03T21:02:06.093Z,84.80
2019-05-03T21:04:35.516Z,84.90
2019-05-03T21:07:04.950Z,85.00
2019-05-03T21:09:34.701Z,85.20
2019-05-03T21:12:04.476Z,85.20
2019-05-03T21:14:35.054Z,85.30
2019-05-03T21:17:15.150Z,85.40
2019-05-03T21:19:46.053Z,85.70
2019-05-03T21:22:16.970Z,85.70
2019-05-03T21:24:50.971Z,86.20
2019-05-03T21:27:20.246Z,86.00
2019-05-03T21:29:51.174Z,86.10
2019-05-03T21:32:21.489Z,86.40
2019-05-03T21:34:50.762Z,87.20
2019-05-03T21:37:20.072Z,86.60
2019-05-03T21:39:49.346Z,86.60
2019-05-03T21:42:18.617Z,86.70
2019-05-03T21:44:47.899Z,86.60
2019-05-03T21:47:18.824Z,87.00
2019-05-03T21:49:49.854Z,87.20
2019-05-03T21:52:19.144Z,87.30
2019-05-03T21:54:48.426Z,87.60
2019-05-03T21:57:17.706Z,87.70
2019-05-03T21:59:46.999Z,87.80
2019-05-03T22:02:16.343Z,88.30
2019-05-03T22:04:45.648Z,88.40
2019-05-03T22:07:14.923Z,88.60
2019-05-03T22:09:45.308Z,89.00
2019-05-03T22:12:14.649Z,89.60
2019-05-03T22:14:45.589Z,89.20
2019-05-03T22:17:34.548Z,89.50
2019-05-03T22:20:07.812Z,89.90
2019-05-03T22:22:45.522Z,90.00
2019-05-03T22:25:16.458Z,90.00
2019-05-03T22:27:45.726Z,90.10
2019-05-03T22:30:15.096Z,90.20
2019-05-03T22:32:44.589Z,90.40
2019-05-03T22:35:15.657Z,90.50
2019-05-03T22:37:44.897Z,90.50
2019-05-03T22:40:14.711Z,90.60
2019-05-03T22:42:44.819Z,90.60
2019-05-03T22:45:15.403Z,90.80
2019-05-03T22:47:44.696Z,90.80
2019-05-03T22:50:14.932Z,91.00
2019-05-03T22:52:45.495Z,91.00
2019-05-03T22:55:15.308Z,91.10
2019-05-03T22:57:44.726Z,91.30
2019-05-03T23:00:14.758Z,91.40
2019-05-03T23:02:45.660Z,91.40
2019-05-03T23:05:14.986Z,91.30
2019-05-03T23:07:46.798Z,91.80
2019-05-03T23:10:17.418Z,91.50
2019-05-03T23:12:46.221Z,91.60
2019-05-03T23:15:15.594Z,91.60
2019-05-03T23:17:45.179Z,91.80
2019-05-03T23:20:16.223Z,91.90
2019-05-03T23:22:45.582Z,91.90
2019-05-03T23:25:14.877Z,91.90
2019-05-03T23:27:44.478Z,92.10
2019-05-03T23:30:15.405Z,92.10
2019-05-03T23:32:45.298Z,92.30
2019-05-03T23:35:14.770Z,92.20
2019-05-03T23:37:44.993Z,92.20
2019-05-03T23:40:15.672Z,92.30
2019-05-03T23:42:44.960Z,92.30
2019-05-03T23:45:14.923Z,92.40
2019-05-03T23:47:45.970Z,92.70
2019-05-03T23:50:17.317Z,92.60
2019-05-03T23:52:46.665Z,92.60
2019-05-03T23:55:17.934Z,92.70
2019-05-03T23:57:47.213Z,92.60
